Price, Utah
Current Conditions -  °F | °C
As of 5:53 PM on Friday 28 Nov 2014 (Local Time) from KPUC Reporting Station
Clear Clear  
Wind Chill: 30°   Ceiling: Unl
Heat Index: 36°   Visibility: 10mi
Dew Point: 23°   Wind: 7mph
Humidity: 59%   Direction: 40°NE
Pressure: 30.02"   Gusts: NA
Location:  39.6°N, 110.81°W
Report Text: KPUC 290053Z AUTO 04006KT 10SM CLR 02/M05 A3002 RMK AO2 SLP198 T00221050
Loading
Personal Weather Stations






























Interactive Weather Map New forecast layout! Learn more

10-Day Weather Forecast

Advertisements
Track Severe Weather on mobile